Time;durP1;ratioP1;P1;durP2;ratioP2;P2;SDS_P1;SDS_P2;PMS_P1;PMS_P2;Temp;Humidity;BMP_temperature;BMP_pressure;BME280_temperature;BME280_humidity;BME280_pressure;Samples;Min_cycle;Max_cycle;Signal;HPM_P1;HPM_P2
2022/04/17 00:01:54;;;;;;;;;;;6.50;99.90;;;;;;5112990;28;19998;-47
2022/04/17 00:04:20;;;;;;;;;;;6.40;99.90;;;;;;5111747;28;20318;-47
2022/04/17 00:06:46;;;;;;;;;;;6.40;99.90;;;;;;5112870;28;19924;-46
2022/04/17 00:09:12;;;;;;;;;;;6.40;99.90;;;;;;5113027;28;20289;-49
2022/04/17 00:11:37;;;;;;;;;;;6.30;99.90;;;;;;5113041;28;20377;-48
2022/04/17 00:14:03;;;;;;;;;;;6.30;99.90;;;;;;5112890;28;19924;-47
2022/04/17 00:16:28;;;;;;;;;;;6.30;99.90;;;;;;5112593;28;20482;-47
2022/04/17 00:18:54;;;;;;;;;;;6.20;99.90;;;;;;5112691;28;19959;-50
2022/04/17 00:21:20;;;;;;;;;;;6.20;99.90;;;;;;5112611;28;19924;-50
2022/04/17 00:23:46;;;;;;;;;;;6.20;99.90;;;;;;5112901;28;19923;-48
2022/04/17 00:26:11;;;;;;;;;;;6.20;99.90;;;;;;5112774;28;19931;-49
2022/04/17 00:28:37;;;;;;;;;;;6.20;99.90;;;;;;5112770;28;20274;-47
2022/04/17 00:31:02;;;;;;;;;;;6.20;99.90;;;;;;5112694;28;19924;-49
2022/04/17 00:33:28;;;;;;;;;;;6.10;99.90;;;;;;5112592;28;20014;-47
2022/04/17 00:35:53;;;;;;;;;;;6.10;99.90;;;;;;5112776;28;20353;-50
2022/04/17 00:38:19;;;;;;;;;;;6.00;99.90;;;;;;5112869;28;19945;-47
2022/04/17 00:40:44;;;;;;;;;;;6.00;99.90;;;;;;5115920;28;19924;-46
2022/04/17 00:43:31;;;;;;;;;;;5.90;99.90;;;;;;5116200;28;19969;-50
2022/04/17 00:45:57;;;;;;;;;;;5.90;99.90;;;;;;5116087;28;20365;-49
2022/04/17 00:48:23;;;;;;;;;;;5.80;99.90;;;;;;5116240;28;20018;-48
2022/04/17 00:50:49;;;;;;;;;;;5.70;99.90;;;;;;5116094;28;19977;-48
2022/04/17 00:53:15;;;;;;;;;;;5.70;99.90;;;;;;5115821;28;20018;-48
2022/04/17 00:55:40;;;;;;;;;;;5.60;99.90;;;;;;5115821;28;19953;-49
2022/04/17 00:58:06;;;;;;;;;;;5.60;99.90;;;;;;5115923;28;20293;-49
2022/04/17 01:00:33;;;;;;;;;;;5.60;99.90;;;;;;5114417;28;19985;-47
2022/04/17 01:02:59;;;;;;;;;;;5.60;99.90;;;;;;5115933;28;19931;-51
2022/04/17 01:05:24;;;;;;;;;;;5.50;99.90;;;;;;5115686;28;19923;-47
2022/04/17 01:07:50;;;;;;;;;;;5.50;99.90;;;;;;5116083;28;19954;-46
2022/04/17 01:10:16;;;;;;;;;;;5.60;99.90;;;;;;5115558;28;20365;-47
2022/04/17 01:12:41;;;;;;;;;;;5.40;99.90;;;;;;5114253;28;19924;-48
2022/04/17 01:15:07;;;;;;;;;;;5.40;99.90;;;;;;5115177;28;19985;-48
2022/04/17 01:17:33;;;;;;;;;;;5.40;99.90;;;;;;5115647;28;19931;-46
2022/04/17 01:19:58;;;;;;;;;;;5.40;99.90;;;;;;5114275;28;19924;-47
2022/04/17 01:22:25;;;;;;;;;;;5.40;99.90;;;;;;5115568;28;19931;-47
2022/04/17 01:27:36;;;;;;;;;;;5.30;99.90;;;;;;5115322;28;19977;-46
2022/04/17 01:30:03;;;;;;;;;;;5.30;99.90;;;;;;5115479;27;20003;-47
2022/04/17 01:32:29;;;;;;;;;;;5.30;99.90;;;;;;5115373;27;19977;-50
2022/04/17 01:34:54;;;;;;;;;;;5.30;99.90;;;;;;5115270;28;20289;-47
2022/04/17 01:37:19;;;;;;;;;;;5.20;99.90;;;;;;5115176;28;19994;-46
2022/04/17 01:39:45;;;;;;;;;;;5.30;99.90;;;;;;5113846;28;19924;-46
2022/04/17 01:42:13;;;;;;;;;;;5.20;99.90;;;;;;5115570;28;19946;-48
2022/04/17 01:44:39;;;;;;;;;;;5.20;99.90;;;;;;5115269;28;19992;-47
2022/04/17 01:47:04;;;;;;;;;;;5.10;99.90;;;;;;5115049;28;20436;-48
2022/04/17 01:49:30;;;;;;;;;;;5.00;99.90;;;;;;5115072;28;19924;-49
2022/04/17 01:51:56;;;;;;;;;;;5.00;99.90;;;;;;5109698;22;20027;-47
2022/04/17 01:54:23;;;;;;;;;;;5.00;99.90;;;;;;5092504;28;20011;-47
2022/04/17 01:56:48;;;;;;;;;;;5.00;99.90;;;;;;5074491;28;19924;-48
2022/04/17 01:59:15;;;;;;;;;;;5.00;99.90;;;;;;5081031;28;19924;-47
2022/04/17 02:01:41;;;;;;;;;;;5.00;99.90;;;;;;5094630;28;20313;-48
2022/04/17 02:04:08;;;;;;;;;;;4.90;99.90;;;;;;5094863;28;19924;-48
2022/04/17 02:06:33;;;;;;;;;;;4.90;99.90;;;;;;5095036;28;20285;-48
2022/04/17 02:08:59;;;;;;;;;;;4.90;99.90;;;;;;5078144;28;19925;-48
2022/04/17 02:11:26;;;;;;;;;;;4.80;99.90;;;;;;5074257;28;19924;-47
2022/04/17 02:13:51;;;;;;;;;;;4.80;99.90;;;;;;5074200;28;19924;-48
2022/04/17 02:16:17;;;;;;;;;;;4.80;99.90;;;;;;5074275;28;19931;-45
2022/04/17 02:18:49;;;;;;;;;;;4.80;99.90;;;;;;5074335;28;20354;-46
2022/04/17 02:21:15;;;;;;;;;;;4.70;99.90;;;;;;5074147;28;20389;-48
2022/04/17 02:23:41;;;;;;;;;;;4.70;99.90;;;;;;5056435;28;19948;-46
2022/04/17 02:26:07;;;;;;;;;;;4.60;99.90;;;;;;5090805;28;19924;-46
2022/04/17 02:28:35;;;;;;;;;;;4.50;99.90;;;;;;5094437;28;19931;-46
2022/04/17 02:31:01;;;;;;;;;;;4.50;99.90;;;;;;5094365;28;20022;-46
2022/04/17 02:33:27;;;;;;;;;;;4.50;99.90;;;;;;5094265;28;19931;-47
2022/04/17 02:35:53;;;;;;;;;;;4.60;99.90;;;;;;5094119;28;20322;-46
2022/04/17 02:38:18;;;;;;;;;;;4.60;99.90;;;;;;5094631;28;19978;-47
2022/04/17 02:40:43;;;;;;;;;;;4.50;99.90;;;;;;5093878;28;19924;-47
2022/04/17 02:43:09;;;;;;;;;;;4.50;99.90;;;;;;5094283;28;19976;-50
2022/04/17 02:45:34;;;;;;;;;;;4.40;99.90;;;;;;5094288;28;19931;-45
2022/04/17 02:48:00;;;;;;;;;;;4.40;99.90;;;;;;5094089;28;20386;-47
2022/04/17 02:50:25;;;;;;;;;;;4.30;99.90;;;;;;5095471;28;19924;-46
2022/04/17 02:52:54;;;;;;;;;;;4.20;99.90;;;;;;5114283;28;19931;-46
2022/04/17 02:55:19;;;;;;;;;;;4.10;99.90;;;;;;5113991;28;19970;-46
2022/04/17 02:57:45;;;;;;;;;;;4.10;99.90;;;;;;5114270;28;19924;-46
2022/04/17 03:00:11;;;;;;;;;;;4.10;99.90;;;;;;5097733;28;20010;-45
2022/04/17 03:05:36;;;;;;;;;;;4.00;99.90;;;;;;5093663;28;19931;-46
2022/04/17 03:08:22;;;;;;;;;;;4.00;99.90;;;;;;5093865;28;19924;-46
2022/04/17 03:10:47;;;;;;;;;;;3.90;99.90;;;;;;5093157;28;19928;-46
2022/04/17 03:13:13;;;;;;;;;;;3.90;99.90;;;;;;5093707;28;20015;-46
2022/04/17 03:15:38;;;;;;;;;;;3.90;99.90;;;;;;5093507;28;19947;-46
2022/04/17 03:18:04;;;;;;;;;;;3.90;99.90;;;;;;5075505;28;20401;-46
2022/04/17 03:20:30;;;;;;;;;;;3.90;99.90;;;;;;5093797;28;19924;-45
2022/04/17 03:22:56;;;;;;;;;;;3.80;99.90;;;;;;5093568;28;19932;-45
2022/04/17 03:25:21;;;;;;;;;;;3.80;99.90;;;;;;5093517;28;19946;-47
2022/04/17 03:27:47;;;;;;;;;;;3.80;99.90;;;;;;5093495;28;19924;-47
2022/04/17 03:30:14;;;;;;;;;;;3.80;99.90;;;;;;5075376;28;19924;-45
2022/04/17 03:32:40;;;;;;;;;;;3.80;99.90;;;;;;5075151;28;19967;-45
2022/04/17 03:35:06;;;;;;;;;;;3.90;99.90;;;;;;5093584;28;19999;-46
2022/04/17 03:37:32;;;;;;;;;;;3.80;99.90;;;;;;5093450;28;20380;-45
2022/04/17 03:39:57;;;;;;;;;;;3.80;99.90;;;;;;5093550;28;19924;-45
2022/04/17 03:42:23;;;;;;;;;;;3.80;99.90;;;;;;5093418;28;19931;-45
2022/04/17 03:44:49;;;;;;;;;;;3.70;99.90;;;;;;5093255;28;19924;-45
2022/04/17 03:47:14;;;;;;;;;;;3.70;99.90;;;;;;5093218;28;19924;-45
2022/04/17 03:49:39;;;;;;;;;;;3.70;99.90;;;;;;5093656;28;19925;-47
2022/04/17 03:52:05;;;;;;;;;;;3.80;99.90;;;;;;5093152;28;20014;-45
2022/04/17 03:54:31;;;;;;;;;;;3.70;99.90;;;;;;5093267;28;19970;-46
2022/04/17 03:56:56;;;;;;;;;;;3.70;99.90;;;;;;5093213;28;20391;-45
2022/04/17 03:59:22;;;;;;;;;;;3.60;99.90;;;;;;5093195;28;19932;-49
2022/04/17 04:01:47;;;;;;;;;;;3.50;99.90;;;;;;5093163;28;20417;-45
2022/04/17 04:04:14;;;;;;;;;;;3.50;99.90;;;;;;5093278;28;19924;-46
2022/04/17 04:06:40;;;;;;;;;;;3.50;99.90;;;;;;5092968;28;19924;-46
2022/04/17 04:09:06;;;;;;;;;;;3.50;99.90;;;;;;5093167;28;19925;-45
2022/04/17 04:11:31;;;;;;;;;;;3.50;99.90;;;;;;5093012;28;19924;-46
2022/04/17 04:13:57;;;;;;;;;;;3.50;99.90;;;;;;5093725;28;20377;-46
2022/04/17 04:16:22;;;;;;;;;;;3.60;99.90;;;;;;5096568;28;19932;-46
2022/04/17 04:18:48;;;;;;;;;;;3.60;99.90;;;;;;5096965;28;19924;-46
2022/04/17 04:21:13;;;;;;;;;;;3.50;99.90;;;;;;5097130;28;19924;-45
2022/04/17 04:23:40;;;;;;;;;;;3.60;99.90;;;;;;5096846;28;19931;-46
2022/04/17 04:26:05;;;;;;;;;;;3.60;99.90;;;;;;5096951;28;19931;-47
2022/04/17 04:28:36;;;;;;;;;;;3.60;99.90;;;;;;5096587;28;20294;-51
2022/04/17 04:31:02;;;;;;;;;;;3.60;99.90;;;;;;5096641;28;19968;-46
2022/04/17 04:33:30;;;;;;;;;;;3.60;99.90;;;;;;5096405;28;20052;-48
2022/04/17 04:35:58;;;;;;;;;;;3.60;99.90;;;;;;5096472;28;19931;-50
2022/04/17 04:38:23;;;;;;;;;;;3.60;99.90;;;;;;5096607;28;19947;-48
2022/04/17 04:40:49;;;;;;;;;;;3.70;99.90;;;;;;5078389;28;20374;-46
2022/04/17 04:43:15;;;;;;;;;;;3.80;99.90;;;;;;5096449;28;20338;-46
2022/04/17 04:51:09;;;;;;;;;;;3.80;99.90;;;;;;5096001;28;19924;-48
2022/04/17 04:53:35;;;;;;;;;;;3.80;99.90;;;;;;5096174;28;20374;-47
2022/04/17 04:56:00;;;;;;;;;;;3.80;99.90;;;;;;5095842;28;19982;-47
2022/04/17 04:58:26;;;;;;;;;;;3.90;99.90;;;;;;5096294;28;19924;-46
2022/04/17 05:00:51;;;;;;;;;;;4.00;99.90;;;;;;5096289;28;20019;-45
2022/04/17 05:03:17;;;;;;;;;;;4.00;99.90;;;;;;5078077;28;19924;-46
2022/04/17 05:05:42;;;;;;;;;;;4.00;99.90;;;;;;5095974;28;20421;-46
2022/04/17 05:08:08;;;;;;;;;;;4.10;99.90;;;;;;5095968;28;19924;-46
2022/04/17 05:10:33;;;;;;;;;;;4.10;99.90;;;;;;5095678;28;20409;-46
2022/04/17 05:12:59;;;;;;;;;;;4.20;99.90;;;;;;5096112;28;19924;-47
2022/04/17 05:15:24;;;;;;;;;;;4.20;99.90;;;;;;5095842;28;20389;-46
2022/04/17 05:17:50;;;;;;;;;;;4.20;99.90;;;;;;5095766;28;19924;-45
2022/04/17 05:20:15;;;;;;;;;;;4.30;99.90;;;;;;5095729;28;20057;-47
2022/04/17 05:22:41;;;;;;;;;;;4.30;99.90;;;;;;5095653;28;20279;-45
2022/04/17 05:25:06;;;;;;;;;;;4.30;99.90;;;;;;5094865;28;19931;-46
2022/04/17 05:27:32;;;;;;;;;;;4.30;99.90;;;;;;5095324;28;19928;-45
2022/04/17 05:29:58;;;;;;;;;;;4.40;99.90;;;;;;5095941;28;19931;-46
2022/04/17 05:32:24;;;;;;;;;;;4.50;99.90;;;;;;5095594;28;20299;-45
2022/04/17 05:34:49;;;;;;;;;;;4.50;99.90;;;;;;5095423;28;19925;-46
2022/04/17 05:37:15;;;;;;;;;;;4.60;99.90;;;;;;5095200;28;20006;-45
2022/04/17 05:39:41;;;;;;;;;;;4.60;99.90;;;;;;5095032;28;20309;-46
2022/04/17 05:42:07;;;;;;;;;;;4.70;99.90;;;;;;5095315;28;20043;-46
2022/04/17 05:44:34;;;;;;;;;;;4.80;99.90;;;;;;5095458;28;19924;-46
2022/04/17 05:46:59;;;;;;;;;;;5.10;99.90;;;;;;5095247;28;19928;-46
2022/04/17 05:49:25;;;;;;;;;;;6.40;99.90;;;;;;5076980;28;19947;-46
2022/04/17 05:51:50;;;;;;;;;;;7.70;99.90;;;;;;5094712;28;19934;-46
2022/04/17 05:54:16;;;;;;;;;;;8.70;99.90;;;;;;5094927;28;20016;-46
2022/04/17 05:56:41;;;;;;;;;;;9.50;99.90;;;;;;5076615;28;19964;-46
2022/04/17 05:59:07;;;;;;;;;;;10.40;99.90;;;;;;5094852;28;20097;-47
2022/04/17 06:01:33;;;;;;;;;;;11.00;99.90;;;;;;5095069;28;19925;-47
2022/04/17 06:04:01;;;;;;;;;;;11.40;96.10;;;;;;5094754;28;20378;-51
2022/04/17 06:06:27;;;;;;;;;;;11.80;91.40;;;;;;5094755;28;19931;-47
2022/04/17 06:08:52;;;;;;;;;;;12.30;88.30;;;;;;5094713;28;19928;-46
2022/04/17 06:11:18;;;;;;;;;;;12.90;87.50;;;;;;5094835;28;19931;-47
2022/04/17 06:13:43;;;;;;;;;;;12.80;84.30;;;;;;5094769;28;19931;-47
2022/04/17 06:16:08;;;;;;;;;;;13.10;84.70;;;;;;5094660;28;19925;-47
2022/04/17 06:18:34;;;;;;;;;;;13.30;80.40;;;;;;5094495;28;19977;-46
2022/04/17 06:21:00;;;;;;;;;;;13.40;76.30;;;;;;5094380;28;20355;-47
2022/04/17 06:23:27;;;;;;;;;;;13.70;79.80;;;;;;5094464;28;19977;-49
2022/04/17 06:25:52;;;;;;;;;;;13.50;75.20;;;;;;5094554;28;19924;-47
2022/04/17 06:28:18;;;;;;;;;;;13.60;73.70;;;;;;5094656;28;19931;-47
2022/04/17 06:30:43;;;;;;;;;;;14.20;75.30;;;;;;5094359;28;19924;-48
2022/04/17 06:33:09;;;;;;;;;;;14.40;70.70;;;;;;5094249;28;20360;-48
2022/04/17 06:35:34;;;;;;;;;;;15.20;71.10;;;;;;5094185;28;19924;-46
2022/04/17 06:38:01;;;;;;;;;;;15.50;68.10;;;;;;5093314;28;19967;-51
2022/04/17 06:40:28;;;;;;;;;;;15.30;65.70;;;;;;5094323;28;19974;-48
2022/04/17 06:42:55;;;;;;;;;;;15.30;65.10;;;;;;5094280;28;20011;-47
2022/04/17 06:45:20;;;;;;;;;;;15.70;65.50;;;;;;5094067;28;19931;-48
2022/04/17 06:47:46;;;;;;;;;;;15.10;62.90;;;;;;5094042;28;19932;-47
2022/04/17 06:50:11;;;;;;;;;;;15.50;66.10;;;;;;5093966;28;19929;-47
2022/04/17 06:52:37;;;;;;;;;;;15.70;63.60;;;;;;5093632;28;19931;-47
2022/04/17 06:55:03;;;;;;;;;;;16.20;63.30;;;;;;5094102;28;19931;-47
2022/04/17 06:57:29;;;;;;;;;;;16.50;61.90;;;;;;5093917;28;20019;-47
2022/04/17 06:59:55;;;;;;;;;;;16.00;60.80;;;;;;5093897;28;19924;-48
2022/04/17 07:02:20;;;;;;;;;;;15.90;60.10;;;;;;5094168;28;19928;-47
2022/04/17 07:04:46;;;;;;;;;;;16.00;57.70;;;;;;5093831;28;19925;-48
2022/04/17 07:07:11;;;;;;;;;;;16.00;60.50;;;;;;5093812;28;19924;-47
2022/04/17 07:09:37;;;;;;;;;;;16.20;59.70;;;;;;5093820;28;20384;-47
2022/04/17 07:12:02;;;;;;;;;;;16.20;58.80;;;;;;5093846;28;19932;-48
2022/04/17 07:14:28;;;;;;;;;;;16.10;59.00;;;;;;5093742;28;19924;-50
2022/04/17 07:16:53;;;;;;;;;;;16.30;57.80;;;;;;5075489;28;20009;-48
2022/04/17 07:19:20;;;;;;;;;;;15.90;58.20;;;;;;5093631;28;19924;-49
2022/04/17 07:21:46;;;;;;;;;;;16.20;59.90;;;;;;5093406;28;19960;-51
2022/04/17 07:24:11;;;;;;;;;;;15.80;59.30;;;;;;5093648;28;20340;-48
2022/04/17 07:26:37;;;;;;;;;;;14.60;59.40;;;;;;5093330;28;19931;-47
2022/04/17 07:29:03;;;;;;;;;;;13.80;61.30;;;;;;5093587;28;20011;-51
2022/04/17 07:31:29;;;;;;;;;;;13.50;62.80;;;;;;5093437;28;19924;-49
2022/04/17 07:33:54;;;;;;;;;;;12.90;63.20;;;;;;5093501;28;19924;-47
2022/04/17 07:36:20;;;;;;;;;;;12.60;64.30;;;;;;5093365;28;19924;-48
2022/04/17 07:38:46;;;;;;;;;;;12.40;65.10;;;;;;5093176;28;20015;-48
2022/04/17 07:41:11;;;;;;;;;;;12.20;66.90;;;;;;5093595;28;19928;-48
2022/04/17 07:43:37;;;;;;;;;;;12.40;68.30;;;;;;5093403;28;19924;-48
2022/04/17 07:46:02;;;;;;;;;;;12.30;69.20;;;;;;5093354;28;20379;-49
2022/04/17 07:48:28;;;;;;;;;;;12.30;68.90;;;;;;5094826;28;19931;-48
2022/04/17 07:50:54;;;;;;;;;;;12.40;69.10;;;;;;5096983;28;19924;-48
2022/04/17 07:53:20;;;;;;;;;;;12.40;67.50;;;;;;5097220;28;20370;-49
2022/04/17 07:55:45;;;;;;;;;;;12.10;68.50;;;;;;5097314;28;19935;-47
2022/04/17 07:58:22;;;;;;;;;;;12.50;68.80;;;;;;5097268;28;19924;-47
2022/04/17 08:00:57;;;;;;;;;;;12.60;68.20;;;;;;5097449;28;19924;-51
2022/04/17 08:03:45;;;;;;;;;;;12.60;67.70;;;;;;5079144;28;19924;-47
2022/04/17 08:06:12;;;;;;;;;;;12.60;64.90;;;;;;5097208;28;20061;-47
2022/04/17 08:08:39;;;;;;;;;;;12.70;66.10;;;;;;5097203;28;19931;-48
2022/04/17 08:11:05;;;;;;;;;;;12.70;65.30;;;;;;5096952;28;20332;-46
2022/04/17 08:13:30;;;;;;;;;;;12.80;65.90;;;;;;5096908;28;19924;-46
2022/04/17 08:15:56;;;;;;;;;;;12.80;67.10;;;;;;5096740;28;19925;-52
2022/04/17 08:18:21;;;;;;;;;;;12.70;66.60;;;;;;5096959;28;20275;-46
2022/04/17 08:20:47;;;;;;;;;;;12.70;65.90;;;;;;5078839;28;19928;-48
2022/04/17 08:23:12;;;;;;;;;;;13.00;68.80;;;;;;5096544;28;19930;-48
2022/04/17 08:25:38;;;;;;;;;;;13.20;66.50;;;;;;5078397;28;19931;-47
2022/04/17 08:28:04;;;;;;;;;;;12.90;65.50;;;;;;5096562;28;19931;-48
2022/04/17 08:30:31;;;;;;;;;;;13.20;67.50;;;;;;5096468;28;19924;-47
2022/04/17 08:32:57;;;;;;;;;;;13.30;67.10;;;;;;5096725;28;20263;-47
2022/04/17 08:35:22;;;;;;;;;;;13.30;65.80;;;;;;5096610;28;20393;-49
2022/04/17 08:37:48;;;;;;;;;;;13.20;64.20;;;;;;5096554;28;19925;-46
2022/04/17 08:40:14;;;;;;;;;;;13.40;65.90;;;;;;5078289;28;19931;-47
2022/04/17 08:42:39;;;;;;;;;;;13.90;80.10;;;;;;5096887;28;20258;-47
2022/04/17 08:45:05;;;;;;;;;;;13.80;70.70;;;;;;5096223;28;20381;-47
2022/04/17 08:47:31;;;;;;;;;;;13.90;66.60;;;;;;5096244;28;19928;-48
2022/04/17 08:49:57;;;;;;;;;;;13.80;78.80;;;;;;5096393;28;19961;-48
2022/04/17 08:52:23;;;;;;;;;;;13.60;79.10;;;;;;5096286;28;20363;-47
2022/04/17 08:54:49;;;;;;;;;;;13.60;77.00;;;;;;5095975;28;19927;-47
2022/04/17 08:57:16;;;;;;;;;;;13.60;77.00;;;;;;5096117;28;20020;-47
2022/04/17 08:59:42;;;;;;;;;;;13.60;76.50;;;;;;5076981;28;20010;-50
2022/04/17 09:02:10;;;;;;;;;;;13.80;77.80;;;;;;5096201;28;19968;-49
2022/04/17 09:04:36;;;;;;;;;;;14.10;77.90;;;;;;5095884;28;20281;-48
2022/04/17 09:07:03;;;;;;;;;;;14.30;83.10;;;;;;5095920;28;19924;-48
2022/04/17 09:09:28;;;;;;;;;;;14.30;65.10;;;;;;5095944;28;19970;-48
2022/04/17 09:11:55;;;;;;;;;;;14.40;71.20;;;;;;5095845;28;19924;-50
2022/04/17 09:14:20;;;;;;;;;;;14.20;63.80;;;;;;5095749;28;20275;-46
2022/04/17 09:16:49;;;;;;;;;;;14.30;63.90;;;;;;5095872;28;19946;-48
2022/04/17 09:19:16;;;;;;;;;;;14.20;64.20;;;;;;5077850;28;19924;-50
2022/04/17 09:21:42;;;;;;;;;;;14.50;64.30;;;;;;5095503;28;19931;-50
2022/04/17 09:24:12;;;;;;;;;;;14.60;64.10;;;;;;5095639;28;19924;-47
2022/04/17 09:26:37;;;;;;;;;;;14.70;61.80;;;;;;5095640;28;19925;-48
2022/04/17 09:29:15;;;;;;;;;;;14.90;64.00;;;;;;5095475;28;19924;-49
2022/04/17 09:31:41;;;;;;;;;;;15.00;64.40;;;;;;5095370;28;19928;-50
2022/04/17 09:34:07;;;;;;;;;;;15.00;62.50;;;;;;5095450;28;19931;-48
2022/04/17 09:36:33;;;;;;;;;;;14.90;61.40;;;;;;5095402;28;19931;-49
2022/04/17 09:39:15;;;;;;;;;;;15.10;62.30;;;;;;5095149;28;20377;-52
2022/04/17 09:41:57;;;;;;;;;;;15.30;62.50;;;;;;5095103;28;19924;-47
2022/04/17 09:44:38;;;;;;;;;;;15.40;61.10;;;;;;5095304;28;20199;-50
2022/04/17 09:47:06;;;;;;;;;;;15.60;61.30;;;;;;5095127;28;19931;-52
2022/04/17 09:49:48;;;;;;;;;;;15.70;61.60;;;;;;5094979;28;19977;-49
2022/04/17 09:52:14;;;;;;;;;;;15.70;59.00;;;;;;5076649;28;19924;-53
2022/04/17 09:54:42;;;;;;;;;;;15.80;58.20;;;;;;5094926;28;19930;-51
2022/04/17 09:57:08;;;;;;;;;;;15.90;57.50;;;;;;5095015;28;19924;-49
2022/04/17 09:59:33;;;;;;;;;;;15.90;57.40;;;;;;5094992;28;19924;-49
2022/04/17 10:01:59;;;;;;;;;;;16.00;57.70;;;;;;5094953;28;19924;-50
2022/04/17 10:04:26;;;;;;;;;;;15.70;54.90;;;;;;5094750;28;19952;-48
2022/04/17 10:06:52;;;;;;;;;;;15.90;56.90;;;;;;5094920;28;19945;-49
2022/04/17 10:09:18;;;;;;;;;;;16.10;58.20;;;;;;5094851;28;20010;-49
2022/04/17 10:11:43;;;;;;;;;;;15.90;55.60;;;;;;5094725;28;20027;-51
2022/04/17 10:14:09;;;;;;;;;;;16.00;55.20;;;;;;5094648;28;20435;-48
2022/04/17 10:16:38;;;;;;;;;;;16.20;55.20;;;;;;5094487;28;19932;-51
2022/04/17 10:19:05;;;;;;;;;;;16.20;52.90;;;;;;5094479;28;19924;-52
2022/04/17 10:21:34;;;;;;;;;;;16.20;54.60;;;;;;5094679;28;19924;-49
2022/04/17 10:24:01;;;;;;;;;;;16.20;53.60;;;;;;5094495;28;20333;-49
2022/04/17 10:26:26;;;;;;;;;;;16.40;53.10;;;;;;5094467;28;19924;-50
2022/04/17 10:28:54;;;;;;;;;;;16.50;53.80;;;;;;5076336;28;20434;-49
2022/04/17 10:31:20;;;;;;;;;;;16.50;51.60;;;;;;5094382;28;19928;-49
2022/04/17 10:34:06;;;;;;;;;;;16.50;52.90;;;;;;5094055;28;19947;-52
2022/04/17 10:36:31;;;;;;;;;;;16.50;51.50;;;;;;5094250;28;19931;-49
2022/04/17 10:39:03;;;;;;;;;;;16.40;49.70;;;;;;5094241;28;19931;-48
2022/04/17 10:41:29;;;;;;;;;;;16.40;50.10;;;;;;5094329;28;19930;-49
2022/04/17 10:44:03;;;;;;;;;;;16.10;49.30;;;;;;5094097;28;20006;-48
2022/04/17 10:46:29;;;;;;;;;;;16.40;50.20;;;;;;5094178;28;20263;-48
2022/04/17 10:48:56;;;;;;;;;;;16.50;51.00;;;;;;5093918;28;20023;-48
2022/04/17 10:51:22;;;;;;;;;;;16.50;49.50;;;;;;5093574;28;19924;-48
2022/04/17 10:54:06;;;;;;;;;;;16.50;50.10;;;;;;5093925;28;20374;-49
2022/04/17 10:56:36;;;;;;;;;;;16.60;48.70;;;;;;5093808;28;19931;-49
2022/04/17 10:59:06;;;;;;;;;;;16.60;48.90;;;;;;5093934;28;19947;-52
2022/04/17 11:01:43;;;;;;;;;;;16.70;48.60;;;;;;5094124;28;19932;-50
2022/04/17 11:04:18;;;;;;;;;;;16.80;47.50;;;;;;5093831;28;19924;-48
2022/04/17 11:06:44;;;;;;;;;;;16.80;49.80;;;;;;5093972;28;19974;-50
2022/04/17 11:09:12;;;;;;;;;;;16.80;47.40;;;;;;5093511;28;19924;-50
2022/04/17 11:11:38;;;;;;;;;;;16.90;48.30;;;;;;5093690;28;19924;-51
2022/04/17 11:14:07;;;;;;;;;;;16.70;45.80;;;;;;5093732;28;19924;-51
2022/04/17 11:16:38;;;;;;;;;;;16.80;45.40;;;;;;5093493;28;19924;-49
2022/04/17 11:19:06;;;;;;;;;;;16.80;45.50;;;;;;5093456;28;20293;-49
2022/04/17 11:21:41;;;;;;;;;;;16.80;46.30;;;;;;5093569;28;19951;-48
2022/04/17 11:24:07;;;;;;;;;;;16.90;47.00;;;;;;5093302;28;20392;-48
2022/04/17 11:26:52;;;;;;;;;;;17.00;46.50;;;;;;5093564;28;19924;-48
2022/04/17 11:29:34;;;;;;;;;;;17.00;45.90;;;;;;5093520;28;19977;-48
2022/04/17 11:31:59;;;;;;;;;;;17.00;45.00;;;;;;5093381;28;19924;-49
2022/04/17 11:34:39;;;;;;;;;;;17.10;47.00;;;;;;5093478;28;19924;-47
2022/04/17 11:37:05;;;;;;;;;;;17.10;46.50;;;;;;5075314;28;19924;-48
2022/04/17 11:39:31;;;;;;;;;;;17.40;47.20;;;;;;5093717;28;19924;-50
2022/04/17 11:41:58;;;;;;;;;;;17.50;46.70;;;;;;5093349;28;19928;-50
2022/04/17 11:44:24;;;;;;;;;;;17.40;43.60;;;;;;5093307;28;20335;-49
2022/04/17 11:46:49;;;;;;;;;;;17.50;44.00;;;;;;5093526;28;19924;-49
2022/04/17 11:49:15;;;;;;;;;;;17.50;44.60;;;;;;5075083;28;19987;-47
2022/04/17 11:51:43;;;;;;;;;;;17.60;45.00;;;;;;5093207;28;19931;-47
2022/04/17 11:54:28;;;;;;;;;;;17.70;44.10;;;;;;5093320;28;19931;-50
2022/04/17 11:56:54;;;;;;;;;;;17.70;46.00;;;;;;5092993;28;20296;-48
2022/04/17 11:59:19;;;;;;;;;;;17.80;44.60;;;;;;5093357;28;19924;-51
2022/04/17 12:01:45;;;;;;;;;;;17.50;44.60;;;;;;5093237;28;20443;-49
2022/04/17 12:04:20;;;;;;;;;;;17.60;46.10;;;;;;5093235;28;20382;-51
2022/04/17 12:06:46;;;;;;;;;;;17.90;45.80;;;;;;5093101;28;19924;-48
2022/04/17 12:09:11;;;;;;;;;;;17.80;45.60;;;;;;5092938;28;19985;-49
2022/04/17 12:11:39;;;;;;;;;;;17.80;45.10;;;;;;5093480;28;20036;-49
2022/04/17 12:14:05;;;;;;;;;;;17.80;44.80;;;;;;5093116;28;19978;-50
2022/04/17 12:16:30;;;;;;;;;;;17.50;43.90;;;;;;5092981;28;19924;-48
2022/04/17 12:18:56;;;;;;;;;;;17.70;44.90;;;;;;5092952;28;19972;-48
2022/04/17 12:21:31;;;;;;;;;;;17.80;44.30;;;;;;5093103;28;20404;-47
2022/04/17 12:23:57;;;;;;;;;;;17.80;42.00;;;;;;5092717;28;19974;-51
2022/04/17 12:26:22;;;;;;;;;;;17.70;41.90;;;;;;5093007;28;19967;-49
2022/04/17 12:28:49;;;;;;;;;;;17.80;42.80;;;;;;5093070;28;19924;-50
2022/04/17 12:31:15;;;;;;;;;;;17.80;42.20;;;;;;5092893;28;19924;-48
2022/04/17 12:33:40;;;;;;;;;;;17.70;42.20;;;;;;5092792;28;20352;-47
2022/04/17 12:36:07;;;;;;;;;;;17.80;44.60;;;;;;5095022;28;20267;-52
2022/04/17 12:38:33;;;;;;;;;;;18.00;43.50;;;;;;5096398;28;19924;-52
2022/04/17 12:40:58;;;;;;;;;;;18.10;43.60;;;;;;5096349;28;20286;-49
2022/04/17 12:43:27;;;;;;;;;;;18.20;43.90;;;;;;5096502;28;19924;-49
2022/04/17 12:45:56;;;;;;;;;;;18.40;45.60;;;;;;5096321;28;19924;-50
2022/04/17 12:48:25;;;;;;;;;;;18.40;43.90;;;;;;5096247;28;19935;-48
2022/04/17 12:50:55;;;;;;;;;;;18.30;42.90;;;;;;5096115;28;19931;-48
2022/04/17 12:53:21;;;;;;;;;;;18.20;42.50;;;;;;5096053;28;19947;-48
2022/04/17 12:55:47;;;;;;;;;;;18.30;43.70;;;;;;5096206;28;20281;-49
2022/04/17 12:58:12;;;;;;;;;;;18.10;42.20;;;;;;5096202;28;20015;-51
2022/04/17 13:00:38;;;;;;;;;;;18.40;44.00;;;;;;5096451;28;20399;-47
2022/04/17 13:03:13;;;;;;;;;;;18.60;43.10;;;;;;5095952;28;20007;-52
2022/04/17 13:05:39;;;;;;;;;;;18.70;42.80;;;;;;5095913;28;19928;-49
2022/04/17 13:08:06;;;;;;;;;;;18.60;41.80;;;;;;5077794;28;19925;-50
2022/04/17 13:10:31;;;;;;;;;;;18.60;41.80;;;;;;5095961;28;20049;-48
2022/04/17 13:12:57;;;;;;;;;;;18.50;41.60;;;;;;5096008;28;19971;-48
2022/04/17 13:15:28;;;;;;;;;;;18.20;41.80;;;;;;5095907;28;19925;-52
2022/04/17 13:17:54;;;;;;;;;;;18.20;41.10;;;;;;5095609;28;20390;-51
2022/04/17 13:20:20;;;;;;;;;;;18.40;42.60;;;;;;5095641;28;19931;-50
2022/04/17 13:22:47;;;;;;;;;;;18.20;41.00;;;;;;5095729;28;19928;-52
2022/04/17 13:25:13;;;;;;;;;;;18.20;42.70;;;;;;5095895;28;19931;-49
2022/04/17 13:27:39;;;;;;;;;;;18.10;41.20;;;;;;5095605;28;19986;-49
2022/04/17 13:30:11;;;;;;;;;;;18.00;41.00;;;;;;5095636;28;20374;-51
2022/04/17 13:32:40;;;;;;;;;;;18.30;42.00;;;;;;5095353;28;19967;-48
2022/04/17 13:35:06;;;;;;;;;;;18.40;42.30;;;;;;5095605;28;19978;-49
2022/04/17 13:40:15;;;;;;;;;;;18.50;41.70;;;;;;5095455;28;19964;-49
2022/04/17 13:42:41;;;;;;;;;;;18.60;44.10;;;;;;5095270;28;19924;-52
2022/04/17 13:45:07;;;;;;;;;;;18.80;40.40;;;;;;5095171;28;20375;-50
2022/04/17 13:47:33;;;;;;;;;;;18.80;40.20;;;;;;5095346;28;20282;-49
2022/04/17 13:49:58;;;;;;;;;;;18.90;42.50;;;;;;5095214;28;19931;-51
2022/04/17 13:52:27;;;;;;;;;;;18.70;41.40;;;;;;5095176;28;19924;-49
2022/04/17 13:54:53;;;;;;;;;;;18.80;41.80;;;;;;5095709;28;20297;-50
2022/04/17 13:57:19;;;;;;;;;;;18.80;41.50;;;;;;5094967;28;19924;-49
2022/04/17 13:59:44;;;;;;;;;;;18.80;40.60;;;;;;5094877;28;19924;-49
2022/04/17 14:02:10;;;;;;;;;;;18.80;42.00;;;;;;5095096;28;20386;-49
2022/04/17 14:04:35;;;;;;;;;;;18.70;41.50;;;;;;5094681;28;20382;-50
2022/04/17 14:07:01;;;;;;;;;;;18.70;41.70;;;;;;5094968;28;20026;-48
2022/04/17 14:09:28;;;;;;;;;;;18.90;42.30;;;;;;5094750;28;19924;-48
2022/04/17 14:11:53;;;;;;;;;;;18.80;42.40;;;;;;5094746;28;19978;-50
2022/04/17 14:14:19;;;;;;;;;;;19.10;42.80;;;;;;5094603;28;19963;-51
2022/04/17 14:16:45;;;;;;;;;;;19.20;44.10;;;;;;5094637;28;19985;-49
2022/04/17 14:19:10;;;;;;;;;;;19.10;41.50;;;;;;5094383;28;20289;-48
2022/04/17 14:21:36;;;;;;;;;;;19.10;41.60;;;;;;5094572;28;19930;-48
2022/04/17 14:24:01;;;;;;;;;;;19.20;42.00;;;;;;5094398;28;20006;-49
2022/04/17 14:26:27;;;;;;;;;;;19.20;40.40;;;;;;5094446;28;19931;-48
2022/04/17 14:28:52;;;;;;;;;;;19.20;39.40;;;;;;5094384;28;19928;-48
2022/04/17 14:31:18;;;;;;;;;;;19.20;39.70;;;;;;5094432;28;20358;-48
2022/04/17 14:33:43;;;;;;;;;;;19.10;40.40;;;;;;5094659;28;19924;-48